Time;durP1;ratioP1;P1;durP2;ratioP2;P2;SDS_P1;SDS_P2;PMS_P1;PMS_P2;Temp;Humidity;BMP_temperature;BMP_pressure;BME280_temperature;BME280_humidity;BME280_pressure;Samples;Min_cycle;Max_cycle;Signal;HPM_P1;HPM_P2
2022/04/01 00:00:29;;;;;;;4.50;2.20;;;20.10;56.20;;;;;;5027061;28;20555;-68
2022/04/01 00:02:54;;;;;;;4.13;2.40;;;20.10;56.20;;;;;;5032220;28;20112;-68
2022/04/01 00:05:20;;;;;;;4.88;2.13;;;20.10;56.10;;;;;;5032261;28;20047;-68
2022/04/01 00:07:46;;;;;;;4.38;2.00;;;20.10;56.10;;;;;;5013565;28;20087;-68
2022/04/01 00:10:12;;;;;;;2.50;1.83;;;20.10;56.20;;;;;;5012389;28;20022;-68
2022/04/01 00:12:44;;;;;;;3.60;1.98;;;20.10;56.20;;;;;;5011427;28;20093;-68
2022/04/01 00:15:12;;;;;;;2.92;1.90;;;20.20;56.30;;;;;;5011198;28;20477;-68
2022/04/01 00:17:38;;;;;;;4.95;1.73;;;20.10;56.20;;;;;;5011273;28;20041;-68
2022/04/01 00:20:04;;;;;;;3.10;2.03;;;20.10;56.30;;;;;;5012494;28;20492;-68
2022/04/01 00:22:29;;;;;;;2.90;1.70;;;20.20;56.30;;;;;;5012011;28;20052;-68
2022/04/01 00:24:55;;;;;;;4.93;2.10;;;20.20;56.30;;;;;;5011280;28;20500;-68
2022/04/01 00:27:21;;;;;;;4.65;2.10;;;20.20;56.30;;;;;;5012242;28;20370;-68
2022/04/01 00:29:48;;;;;;;3.25;1.95;;;20.20;56.30;;;;;;5012245;28;20026;-68
2022/04/01 00:32:14;;;;;;;3.58;2.00;;;20.20;56.30;;;;;;5013747;28;20439;-68
2022/04/01 00:34:40;;;;;;;3.85;1.90;;;20.20;56.30;;;;;;5015981;28;20026;-68
2022/04/01 00:37:05;;;;;;;5.28;2.00;;;20.10;56.20;;;;;;5015807;28;20061;-68
2022/04/01 00:39:31;;;;;;;3.72;2.05;;;20.20;56.30;;;;;;5014825;28;20076;-68
2022/04/01 00:41:59;;;;;;;3.10;1.73;;;20.10;56.20;;;;;;5014752;28;20026;-68
2022/04/01 00:44:26;;;;;;;3.80;1.98;;;20.20;56.30;;;;;;5014541;28;20049;-68
2022/04/01 00:46:55;;;;;;;4.38;2.00;;;20.20;56.30;;;;;;5014587;28;20457;-68
2022/04/01 00:49:21;;;;;;;4.13;2.20;;;20.20;56.30;;;;;;5014375;28;20026;-68
2022/04/01 00:51:48;;;;;;;2.97;1.75;;;20.10;56.30;;;;;;5014621;28;20028;-68
2022/04/01 00:54:16;;;;;;;3.80;1.67;;;20.10;56.20;;;;;;5015631;28;20024;-68
2022/04/01 00:56:41;;;;;;;4.28;2.03;;;20.10;56.20;;;;;;5014537;28;20030;-68
2022/04/01 00:59:08;;;;;;;4.28;1.98;;;20.10;56.30;;;;;;5020003;28;20025;-68
2022/04/01 01:01:34;;;;;;;3.08;1.70;;;20.10;56.30;;;;;;5035243;28;20029;-68
2022/04/01 01:04:07;;;;;;;2.40;1.70;;;20.10;56.30;;;;;;5034012;28;20047;-68
2022/04/01 01:06:34;;;;;;;3.15;1.80;;;20.20;56.30;;;;;;5025730;28;20037;-68
2022/04/01 01:09:00;;;;;;;2.15;1.60;;;20.10;56.30;;;;;;5014321;28;20512;-68
2022/04/01 01:11:26;;;;;;;2.28;1.65;;;20.10;56.30;;;;;;5015322;28;20026;-68
2022/04/01 01:13:53;;;;;;;2.78;1.58;;;20.10;57.30;;;;;;5014128;28;20025;-68
2022/04/01 01:16:19;;;;;;;2.92;1.55;;;20.10;56.30;;;;;;5015303;28;20033;-68
2022/04/01 01:18:46;;;;;;;2.70;1.80;;;20.10;56.30;;;;;;5015012;28;20048;-68
2022/04/01 01:21:11;;;;;;;2.80;1.48;;;20.10;56.30;;;;;;5015161;28;20109;-68
2022/04/01 01:23:38;;;;;;;3.97;1.50;;;20.10;56.40;;;;;;5015205;28;20497;-68
2022/04/01 01:26:04;;;;;;;4.70;1.67;;;20.10;56.30;;;;;;5015230;28;20055;-68
2022/04/01 01:28:29;;;;;;;2.58;1.40;;;20.10;56.40;;;;;;5014889;28;20404;-68
2022/04/01 01:30:55;;;;;;;2.33;1.70;;;20.10;56.30;;;;;;5013860;28;20057;-68
2022/04/01 01:33:21;;;;;;;2.97;1.70;;;20.10;56.30;;;;;;5014689;28;20101;-68
2022/04/01 01:35:47;;;;;;;3.30;1.20;;;20.10;56.30;;;;;;5013782;28;20022;-68
2022/04/01 01:38:19;;;;;;;3.55;1.67;;;20.10;56.30;;;;;;5013631;28;20026;-68
2022/04/01 01:40:45;;;;;;;3.17;1.48;;;20.10;56.30;;;;;;5013872;28;20424;-68
2022/04/01 01:43:11;;;;;;;5.45;1.83;;;20.10;56.30;;;;;;5014061;28;20524;-68
2022/04/01 01:45:37;;;;;;;3.10;1.50;;;20.10;56.40;;;;;;5013415;28;20026;-68
2022/04/01 01:48:03;;;;;;;4.05;1.25;;;20.10;56.30;;;;;;5014751;28;20034;-68
2022/04/01 01:55:57;;;;;;;3.88;1.85;;;20.10;56.40;;;;;;5014769;28;20117;-68
2022/04/01 01:58:23;;;;;;;2.15;1.30;;;20.10;56.40;;;;;;5013223;28;20065;-68
2022/04/01 02:00:49;;;;;;;3.15;1.38;;;20.10;56.40;;;;;;5033057;28;20037;-68
2022/04/01 02:03:15;;;;;;;2.15;1.20;;;20.10;56.40;;;;;;5032937;28;20022;-68
2022/04/01 02:05:40;;;;;;;2.25;1.40;;;20.10;56.30;;;;;;5031490;28;20035;-68
2022/04/01 02:08:06;;;;;;;3.72;1.40;;;20.10;56.40;;;;;;5014288;28;20068;-68
2022/04/01 02:10:32;;;;;;;3.00;1.27;;;20.10;56.40;;;;;;5013089;28;20057;-68
2022/04/01 02:12:58;;;;;;;4.70;1.50;;;20.10;56.40;;;;;;5014362;28;20087;-68
2022/04/01 02:15:24;;;;;;;1.50;1.00;;;20.10;56.40;;;;;;5013125;28;20476;-68
2022/04/01 02:17:50;;;;;;;2.53;1.40;;;20.10;56.30;;;;;;5014048;28;20018;-68
2022/04/01 02:20:16;;;;;;;3.40;1.50;;;20.10;56.30;;;;;;5012817;28;20071;-68
2022/04/01 02:22:41;;;;;;;2.40;1.20;;;20.10;56.30;;;;;;5014153;28;20389;-68
2022/04/01 02:25:08;;;;;;;2.00;1.30;;;20.10;56.40;;;;;;5014166;28;20030;-68
2022/04/01 02:27:34;;;;;;;3.20;1.30;;;20.10;56.30;;;;;;5012531;28;20495;-68
2022/04/01 02:30:01;;;;;;;3.67;1.20;;;20.10;56.40;;;;;;5014071;28;20033;-68
2022/04/01 02:32:27;;;;;;;3.55;1.80;;;20.10;56.30;;;;;;5012535;28;20025;-68
2022/04/01 02:34:53;;;;;;;1.45;1.23;;;20.10;56.40;;;;;;5012738;28;20025;-68
2022/04/01 02:37:25;;;;;;;1.30;1.20;;;20.00;56.30;;;;;;5013830;28;20030;-68
2022/04/01 02:39:50;;;;;;;2.50;1.23;;;20.10;56.40;;;;;;5012786;28;20052;-68
2022/04/01 02:42:16;;;;;;;5.45;1.50;;;20.00;56.40;;;;;;5013626;28;20446;-68
2022/04/01 02:44:42;;;;;;;3.35;1.38;;;20.00;56.40;;;;;;5013632;28;20530;-68
2022/04/01 02:47:09;;;;;;;2.28;1.40;;;20.00;56.30;;;;;;5013420;28;20077;-68
2022/04/01 02:49:34;;;;;;;2.30;1.27;;;20.00;56.40;;;;;;5013649;28;20049;-68
2022/04/01 02:52:00;;;;;;;2.65;1.60;;;20.00;56.30;;;;;;5013694;28;20046;-68
2022/04/01 02:54:26;;;;;;;2.05;1.30;;;20.00;56.40;;;;;;5013244;28;20026;-68
2022/04/01 02:56:52;;;;;;;1.63;1.20;;;20.00;56.30;;;;;;5011598;28;20037;-68
2022/04/01 02:59:17;;;;;;;2.88;1.10;;;20.00;56.40;;;;;;5019404;28;20040;-68
2022/04/01 03:01:43;;;;;;;2.85;1.20;;;20.00;56.30;;;;;;5033011;28;20032;-68
2022/04/01 03:04:10;;;;;;;3.33;1.20;;;20.00;57.30;;;;;;5032913;28;20052;-68
2022/04/01 03:06:39;;;;;;;1.73;1.20;;;20.00;56.40;;;;;;5023349;28;20026;-68
2022/04/01 03:09:08;;;;;;;4.13;1.27;;;20.00;56.40;;;;;;5013265;28;20029;-68
2022/04/01 03:11:36;;;;;;;1.73;1.17;;;20.00;56.40;;;;;;5013120;28;20026;-68
2022/04/01 03:14:05;;;;;;;1.40;1.08;;;20.00;56.40;;;;;;5012191;28;20030;-68
2022/04/01 03:16:31;;;;;;;3.03;1.23;;;20.00;56.40;;;;;;4995103;28;20400;-68
2022/04/01 03:18:59;;;;;;;1.63;1.13;;;20.00;56.40;;;;;;5013116;28;20037;-68
2022/04/01 03:21:25;;;;;;;1.63;1.20;;;20.00;56.40;;;;;;5013089;28;20022;-68
2022/04/01 03:23:51;;;;;;;2.05;1.10;;;20.00;56.40;;;;;;5011802;28;20037;-68
2022/04/01 03:26:17;;;;;;;2.08;1.25;;;20.00;56.40;;;;;;5011695;28;20022;-69
2022/04/01 03:28:43;;;;;;;2.08;1.13;;;20.00;56.40;;;;;;5011841;28;20021;-69
2022/04/01 03:31:09;;;;;;;1.83;1.05;;;20.00;57.30;;;;;;5011478;28;20057;-69
2022/04/01 03:33:35;;;;;;;1.98;1.08;;;20.00;56.40;;;;;;5011613;28;20026;-69
2022/04/01 03:36:01;;;;;;;3.22;1.30;;;20.00;56.40;;;;;;5011571;28;20018;-69
2022/04/01 03:38:27;;;;;;;2.38;0.98;;;20.00;56.40;;;;;;5011590;28;20026;-69
2022/04/01 03:40:53;;;;;;;1.50;1.00;;;20.00;56.40;;;;;;5011677;28;20025;-69
2022/04/01 03:43:21;;;;;;;1.52;0.85;;;20.00;56.40;;;;;;5011147;28;20060;-68
2022/04/01 03:45:48;;;;;;;2.45;1.30;;;20.00;56.40;;;;;;5011478;28;20022;-68
2022/04/01 03:48:44;;;;;;;1.27;0.93;;;20.00;56.40;;;;;;5012691;28;20025;-68
2022/04/01 03:51:15;;;;;;;1.80;1.00;;;20.10;56.30;;;;;;5011723;28;20017;-68
2022/04/01 03:53:41;;;;;;;1.75;1.00;;;20.00;56.40;;;;;;5012640;28;20083;-68
2022/04/01 03:56:07;;;;;;;1.75;0.90;;;20.00;56.40;;;;;;5011296;28;20492;-68
2022/04/01 03:58:33;;;;;;;2.45;0.95;;;20.00;56.40;;;;;;5011319;28;20025;-68
2022/04/01 04:01:00;;;;;;;1.10;0.90;;;20.00;56.50;;;;;;5011656;28;20022;-68
2022/04/01 04:03:27;;;;;;;1.40;0.82;;;20.00;56.40;;;;;;5011350;28;20109;-68
2022/04/01 04:05:53;;;;;;;1.90;1.10;;;20.00;56.50;;;;;;5014081;28;20070;-68
2022/04/01 04:08:20;;;;;;;2.75;1.00;;;20.00;56.40;;;;;;5035465;28;20025;-68
2022/04/01 04:10:49;;;;;;;1.75;1.00;;;20.00;56.40;;;;;;5036367;28;20546;-68
2022/04/01 04:13:16;;;;;;;1.55;1.00;;;20.00;56.40;;;;;;5036059;28;20032;-68
2022/04/01 04:15:58;;;;;;;2.20;0.88;;;20.00;56.40;;;;;;5034999;28;20020;-68
2022/04/01 04:18:24;;;;;;;4.28;1.20;;;20.00;56.40;;;;;;5036330;28;20080;-68
2022/04/01 04:21:06;;;;;;;1.50;0.88;;;20.00;56.40;;;;;;5018501;28;20025;-68
2022/04/01 04:23:38;;;;;;;1.27;0.88;;;20.00;56.40;;;;;;5036022;28;20028;-68
2022/04/01 04:26:12;;;;;;;2.42;1.05;;;20.00;56.40;;;;;;5036208;28;20061;-68
2022/04/01 04:28:43;;;;;;;1.27;0.85;;;20.00;56.50;;;;;;5035887;28;20039;-68
2022/04/01 04:31:09;;;;;;;2.10;1.00;;;20.00;56.50;;;;;;5034642;28;20040;-68
2022/04/01 04:33:41;;;;;;;1.73;1.17;;;19.90;56.40;;;;;;5034645;28;20030;-68
2022/04/01 04:36:07;;;;;;;1.38;1.00;;;20.00;56.40;;;;;;5018862;28;20067;-68
2022/04/01 04:38:37;;;;;;;1.27;0.95;;;19.90;56.40;;;;;;5034519;28;20026;-68
2022/04/01 04:41:08;;;;;;;4.13;1.00;;;20.00;56.50;;;;;;5035791;28;20032;-68
2022/04/01 04:43:38;;;;;;;1.17;0.80;;;19.90;56.40;;;;;;5034024;28;20063;-68
2022/04/01 04:46:04;;;;;;;1.75;0.80;;;20.00;56.50;;;;;;5034621;28;20064;-68
2022/04/01 04:48:30;;;;;;;1.75;0.90;;;20.00;56.50;;;;;;5035549;28;20029;-68
2022/04/01 04:50:58;;;;;;;1.45;1.10;;;20.00;56.50;;;;;;5017946;28;20074;-68
2022/04/01 04:53:24;;;;;;;2.05;0.90;;;19.90;56.40;;;;;;5018364;28;20014;-68
2022/04/01 04:55:50;;;;;;;2.33;0.65;;;19.90;56.40;;;;;;5017524;28;20033;-68
2022/04/01 04:58:16;;;;;;;2.10;1.10;;;19.90;56.40;;;;;;5017982;28;20017;-68
2022/04/01 05:00:44;;;;;;;1.63;0.98;;;19.90;56.40;;;;;;5017589;28;20125;-68
2022/04/01 05:03:43;;;;;;;1.15;1.00;;;19.90;56.40;;;;;;5034163;28;20026;-68
2022/04/01 05:06:10;;;;;;;1.30;0.80;;;20.00;56.30;;;;;;5029181;28;20141;-68
2022/04/01 05:09:06;;;;;;;1.02;0.80;;;20.00;56.50;;;;;;5015404;28;20022;-68
2022/04/01 05:11:57;;;;;;;0.70;0.70;;;20.00;56.30;;;;;;5014077;28;20022;-68
2022/04/01 05:14:38;;;;;;;1.98;0.90;;;19.90;56.50;;;;;;5014166;28;20029;-68
2022/04/01 05:17:05;;;;;;;1.40;1.05;;;19.90;56.50;;;;;;5015326;28;20546;-69
2022/04/01 05:19:36;;;;;;;0.98;0.70;;;19.90;56.50;;;;;;5012919;28;20034;-69
2022/04/01 05:22:08;;;;;;;1.85;0.93;;;19.90;56.50;;;;;;5014164;28;20033;-68
2022/04/01 05:24:38;;;;;;;1.02;0.80;;;19.90;56.40;;;;;;5014012;28;20038;-68
2022/04/01 05:27:07;;;;;;;1.00;0.82;;;19.90;56.50;;;;;;5013738;28;20026;-68
2022/04/01 05:29:37;;;;;;;1.23;0.90;;;19.90;56.40;;;;;;5013961;28;20045;-68
2022/04/01 05:32:04;;;;;;;1.20;0.80;;;19.90;56.40;;;;;;5013954;28;20511;-68
2022/04/01 05:34:39;;;;;;;3.42;1.00;;;19.90;56.50;;;;;;5015166;28;20061;-68
2022/04/01 05:37:05;;;;;;;0.88;0.63;;;19.90;56.40;;;;;;5013721;28;20084;-68
2022/04/01 05:39:31;;;;;;;1.10;0.73;;;19.90;56.50;;;;;;5014726;28;20029;-68
2022/04/01 05:41:57;;;;;;;1.63;0.82;;;19.90;56.50;;;;;;5013812;28;20087;-68
2022/04/01 05:44:24;;;;;;;1.45;0.68;;;19.90;56.50;;;;;;5013841;28;20467;-68
2022/04/01 05:46:53;;;;;;;1.17;0.85;;;20.00;56.60;;;;;;5013432;28;20079;-68
2022/04/01 05:49:19;;;;;;;2.03;1.05;;;19.90;56.40;;;;;;5013504;28;20022;-68
2022/04/01 05:51:48;;;;;;;1.40;0.75;;;19.90;56.40;;;;;;5024881;28;20021;-68
2022/04/01 05:54:15;;;;;;;0.80;0.60;;;19.90;56.40;;;;;;5029249;28;20449;-69
2022/04/01 05:56:44;;;;;;;2.70;0.95;;;19.90;56.40;;;;;;5064067;28;20027;-69
2022/04/01 05:59:12;;;;;;;1.55;0.98;;;19.90;56.50;;;;;;5031928;28;20022;-69
2022/04/01 06:01:45;;;;;;;0.95;0.80;;;19.90;56.50;;;;;;5063616;28;20033;-69
2022/04/01 06:04:32;;;;;;;1.77;0.73;;;19.90;56.50;;;;;;5036611;28;20028;-69
2022/04/01 06:07:11;;;;;;;2.63;0.75;;;19.90;56.50;;;;;;5034757;28;20026;-69
2022/04/01 06:09:55;;;;;;;1.00;0.80;;;19.90;56.40;;;;;;5028717;28;20049;-69
2022/04/01 06:12:35;;;;;;;1.75;0.77;;;20.00;56.50;;;;;;5014791;28;20026;-69
2022/04/01 06:15:02;;;;;;;5.13;0.88;;;19.90;55.90;;;;;;5044450;28;20025;-69
2022/04/01 06:17:50;;;;;;;8.55;0.90;;;19.80;55.40;;;;;;5029623;28;20029;-69
2022/04/01 06:20:16;;;;;;;1.10;0.88;;;19.70;54.60;;;;;;5013158;28;20465;-69
2022/04/01 06:22:50;;;;;;;0.98;0.70;;;19.60;55.00;;;;;;5012847;28;20061;-69
2022/04/01 06:25:18;;;;;;;1.30;0.80;;;19.50;54.90;;;;;;5029713;28;20029;-69
2022/04/01 06:27:48;;;;;;;0.80;0.60;;;19.50;56.10;;;;;;5029034;28;20038;-69
2022/04/01 06:30:21;;;;;;;2.40;0.70;;;19.40;55.00;;;;;;5029382;28;20010;-69
2022/04/01 06:32:56;;;;;;;2.35;0.98;;;19.30;55.10;;;;;;5013709;28;20484;-69
2022/04/01 06:35:38;;;;;;;0.95;0.77;;;19.30;54.80;;;;;;5013972;28;20100;-69
2022/04/01 06:38:07;;;;;;;0.73;0.70;;;19.30;54.80;;;;;;5012492;28;20030;-69
2022/04/01 06:40:59;;;;;;;0.98;0.57;;;19.20;54.90;;;;;;5012755;28;20022;-72
2022/04/01 06:43:24;;;;;;;6.50;1.55;;;19.10;54.40;;;;;;5013457;28;20054;-68
2022/04/01 06:45:50;;;;;;;7.10;1.70;;;19.10;55.00;;;;;;5011866;28;20037;-68
2022/04/01 06:48:16;;;;;;;6.75;1.50;;;19.10;55.00;;;;;;5011762;28;20022;-68
2022/04/01 06:50:42;;;;;;;5.63;1.42;;;19.10;55.00;;;;;;5012360;28;20022;-68
2022/04/01 06:53:08;;;;;;;6.47;1.23;;;19.10;55.00;;;;;;5011600;28;20104;-68
2022/04/01 06:55:34;;;;;;;6.03;1.60;;;19.00;54.90;;;;;;5011891;28;20101;-68
2022/04/01 06:58:00;;;;;;;3.53;1.30;;;19.00;54.90;;;;;;5012636;28;20083;-68
2022/04/01 07:00:26;;;;;;;6.60;1.08;;;19.00;54.90;;;;;;5026378;28;20040;-68
2022/04/01 07:02:52;;;;;;;8.68;1.38;;;19.00;54.90;;;;;;5032838;28;20030;-68
2022/04/01 07:05:18;;;;;;;2.97;1.08;;;19.00;54.90;;;;;;5031916;28;20028;-68
2022/04/01 07:07:44;;;;;;;7.18;1.65;;;19.00;55.00;;;;;;5031452;28;20029;-68
2022/04/01 07:10:13;;;;;;;5.75;1.42;;;18.90;54.90;;;;;;5016253;28;20033;-68
2022/04/01 07:12:39;;;;;;;4.68;1.30;;;18.90;54.90;;;;;;5011622;28;20049;-68
2022/04/01 07:15:07;;;;;;;2.72;1.40;;;18.90;54.90;;;;;;5011118;28;20528;-68
2022/04/01 07:17:33;;;;;;;4.07;1.40;;;18.90;54.90;;;;;;5019301;28;20025;-68
2022/04/01 07:19:59;;;;;;;5.53;1.50;;;18.90;54.90;;;;;;5031775;28;20032;-68
2022/04/01 07:22:25;;;;;;;6.38;1.60;;;18.80;54.80;;;;;;5032544;28;20025;-68
2022/04/01 07:24:50;;;;;;;3.58;1.27;;;18.80;54.80;;;;;;5031585;28;20060;-68
2022/04/01 07:27:17;;;;;;;3.47;1.35;;;18.80;54.80;;;;;;5032789;28;20472;-68
2022/04/01 07:29:42;;;;;;;4.35;1.27;;;18.80;54.80;;;;;;5032640;28;20021;-68
2022/04/01 07:34:52;;;;;;;1.83;1.00;;;18.80;54.80;;;;;;5031420;28;20070;-68
2022/04/01 07:37:23;;;;;;;5.25;1.63;;;18.80;54.80;;;;;;5014861;28;20017;-68
2022/04/01 07:39:49;;;;;;;4.68;1.20;;;18.70;54.80;;;;;;5031647;28;20029;-68
2022/04/01 07:42:15;;;;;;;3.50;1.10;;;18.70;54.80;;;;;;5030753;28;20030;-68
2022/04/01 07:44:40;;;;;;;3.90;1.25;;;18.70;54.80;;;;;;5032278;28;20456;-68
2022/04/01 07:47:09;;;;;;;3.25;1.25;;;18.70;54.80;;;;;;5031136;28;20029;-68
2022/04/01 07:49:37;;;;;;;4.93;1.23;;;18.70;54.80;;;;;;5032516;28;20492;-68
2022/04/01 07:52:10;;;;;;;4.72;1.65;;;18.70;54.80;;;;;;5014932;28;20476;-68
2022/04/01 07:54:37;;;;;;;4.97;1.20;;;18.70;54.80;;;;;;5032598;28;20022;-68
2022/04/01 07:57:03;;;;;;;3.63;1.20;;;18.70;54.80;;;;;;5030988;28;20025;-68
2022/04/01 07:59:29;;;;;;;3.25;1.25;;;18.60;54.70;;;;;;5032172;28;20061;-68
2022/04/01 08:01:55;;;;;;;3.60;1.30;;;18.70;54.80;;;;;;5031204;28;20107;-68
2022/04/01 08:04:21;;;;;;;4.28;0.95;;;18.60;54.70;;;;;;5030855;28;20029;-68
2022/04/01 08:06:46;;;;;;;6.07;1.27;;;18.60;54.70;;;;;;5032042;28;20395;-68
2022/04/01 08:09:12;;;;;;;2.83;1.30;;;18.60;54.70;;;;;;5022330;28;20058;-68
2022/04/01 08:11:38;;;;;;;2.47;1.13;;;18.60;54.70;;;;;;5012348;28;20471;-68
2022/04/01 08:14:03;;;;;;;5.03;1.60;;;18.60;54.70;;;;;;5012500;28;20021;-68
2022/04/01 08:16:29;;;;;;;3.42;1.10;;;18.60;54.70;;;;;;5011239;28;20459;-68
2022/04/01 08:18:55;;;;;;;4.00;0.90;;;18.60;54.70;;;;;;5010948;28;20424;-68
2022/04/01 08:21:20;;;;;;;7.28;1.55;;;18.60;54.70;;;;;;5011198;28;20055;-68
2022/04/01 08:23:46;;;;;;;2.92;1.08;;;18.60;54.70;;;;;;5012243;28;20018;-68
2022/04/01 08:26:12;;;;;;;4.10;1.38;;;18.60;54.70;;;;;;5011137;28;20088;-68
2022/04/01 08:28:39;;;;;;;6.13;1.40;;;18.60;54.70;;;;;;5012405;28;20030;-68
2022/04/01 08:31:05;;;;;;;2.92;1.00;;;18.50;54.60;;;;;;5012181;28;20061;-68
2022/04/01 08:33:31;;;;;;;2.90;1.00;;;18.60;54.70;;;;;;5010995;28;20022;-68
2022/04/01 08:35:57;;;;;;;3.25;1.00;;;18.50;54.60;;;;;;5012166;28;20072;-68
2022/04/01 08:38:23;;;;;;;3.65;1.20;;;18.60;54.60;;;;;;5012153;28;20084;-68
2022/04/01 08:40:48;;;;;;;4.30;1.17;;;18.50;54.60;;;;;;5012297;28;20065;-68
2022/04/01 08:43:23;;;;;;;4.75;0.90;;;18.50;54.50;;;;;;5011982;28;20045;-68
2022/04/01 08:45:49;;;;;;;3.78;1.20;;;18.50;54.40;;;;;;5011020;28;20041;-68
2022/04/01 08:48:15;;;;;;;1.83;0.93;;;18.50;54.60;;;;;;5010704;28;20030;-68
2022/04/01 08:50:41;;;;;;;2.22;0.90;;;18.50;54.50;;;;;;5012217;28;20022;-68
2022/04/01 08:53:07;;;;;;;3.55;0.90;;;18.50;54.50;;;;;;5013200;28;20022;-68
2022/04/01 08:55:33;;;;;;;4.15;0.90;;;18.50;54.40;;;;;;5014591;28;20041;-68
2022/04/01 08:57:58;;;;;;;2.53;1.00;;;18.50;54.40;;;;;;5015818;28;20029;-68
2022/04/01 09:00:24;;;;;;;1.77;0.82;;;18.50;54.50;;;;;;5029433;28;20134;-68
2022/04/01 09:03:02;;;;;;;2.95;0.80;;;18.50;54.40;;;;;;5035195;28;20103;-68
2022/04/01 09:05:27;;;;;;;4.22;0.90;;;18.50;54.20;;;;;;5034323;28;20033;-68
2022/04/01 09:08:01;;;;;;;1.40;0.82;;;18.50;54.40;;;;;;5035165;28;20017;-68
2022/04/01 09:10:27;;;;;;;2.22;1.10;;;18.50;54.30;;;;;;5015373;28;20499;-68
2022/04/01 09:12:52;;;;;;;2.25;0.80;;;18.50;54.40;;;;;;5015439;28;20089;-68
2022/04/01 09:15:21;;;;;;;1.73;0.85;;;18.50;54.40;;;;;;5015459;28;20436;-68
2022/04/01 09:17:47;;;;;;;1.65;0.80;;;18.50;54.40;;;;;;5014139;28;20080;-68
2022/04/01 09:20:14;;;;;;;1.60;0.95;;;18.50;54.30;;;;;;5014176;28;20029;-68
2022/04/01 09:22:40;;;;;;;2.47;0.90;;;18.50;54.30;;;;;;5014095;28;20072;-68
2022/04/01 09:25:11;;;;;;;2.00;0.95;;;18.50;54.30;;;;;;5013957;28;20052;-68
2022/04/01 09:27:53;;;;;;;1.58;1.10;;;18.50;54.30;;;;;;5015236;28;20014;-68
2022/04/01 09:30:19;;;;;;;3.22;1.35;;;18.50;54.10;;;;;;5015322;28;20026;-68
2022/04/01 09:32:46;;;;;;;2.00;0.90;;;18.40;54.30;;;;;;5014877;28;20026;-68
2022/04/01 09:35:11;;;;;;;3.05;0.82;;;18.40;54.30;;;;;;5014991;28;20465;-68
2022/04/01 09:37:41;;;;;;;1.98;0.85;;;18.40;54.30;;;;;;5013855;28;20037;-68
2022/04/01 09:40:08;;;;;;;1.42;0.80;;;18.40;54.30;;;;;;5014788;28;20084;-68
2022/04/01 09:42:34;;;;;;;0.98;0.68;;;18.40;54.30;;;;;;5013978;28;20025;-68
2022/04/01 09:45:00;;;;;;;1.77;0.80;;;18.50;54.30;;;;;;5013480;28;20037;-68
2022/04/01 09:47:25;;;;;;;1.98;0.77;;;18.40;54.20;;;;;;5013368;28;20030;-68
2022/04/01 09:49:55;;;;;;;1.38;0.88;;;18.40;54.20;;;;;;5014922;28;20072;-68
2022/04/01 09:52:22;;;;;;;2.38;0.88;;;18.40;54.10;;;;;;5013639;28;20022;-68
2022/04/01 09:54:51;;;;;;;2.40;0.75;;;18.40;54.10;;;;;;5013470;28;20481;-68
2022/04/01 09:57:18;;;;;;;0.75;0.70;;;18.40;54.10;;;;;;5014626;28;20083;-68
2022/04/01 09:59:44;;;;;;;2.03;1.13;;;18.40;54.10;;;;;;5022958;28;20163;-68
2022/04/01 10:02:09;;;;;;;2.00;0.80;;;18.40;54.10;;;;;;5034073;28;20108;-68
2022/04/01 10:04:35;;;;;;;2.60;0.90;;;18.40;54.10;;;;;;5033759;28;20563;-68
2022/04/01 10:07:02;;;;;;;1.25;0.63;;;18.40;54.00;;;;;;5034160;28;20029;-68
2022/04/01 10:09:28;;;;;;;1.17;0.70;;;18.40;54.00;;;;;;5022172;28;20021;-68
2022/04/01 10:11:54;;;;;;;0.85;0.60;;;18.40;54.00;;;;;;5013321;28;20018;-68
2022/04/01 10:14:24;;;;;;;2.05;0.70;;;18.40;54.00;;;;;;5012985;28;20037;-68
2022/04/01 10:16:50;;;;;;;1.35;0.60;;;18.40;54.00;;;;;;5013058;28;20036;-68
2022/04/01 10:19:28;;;;;;;2.55;0.93;;;18.40;53.90;;;;;;5014169;28;20100;-68
2022/04/01 10:21:54;;;;;;;1.50;0.88;;;18.40;53.70;;;;;;5012946;28;20036;-68
2022/04/01 10:24:40;;;;;;;1.88;0.80;;;18.40;54.00;;;;;;5014048;28;20026;-68
2022/04/01 10:27:14;;;;;;;1.73;0.80;;;18.40;53.60;;;;;;5012635;28;20026;-68
2022/04/01 10:29:40;;;;;;;3.05;0.85;;;18.40;53.90;;;;;;5012787;28;20366;-68
2022/04/01 10:32:26;;;;;;;1.95;0.65;;;18.40;53.90;;;;;;5012714;28;20025;-68
2022/04/01 10:34:53;;;;;;;1.90;0.75;;;18.40;53.60;;;;;;5014011;28;20014;-68
2022/04/01 10:37:21;;;;;;;2.15;0.80;;;18.40;54.90;;;;;;5012675;28;20026;-68
2022/04/01 10:39:48;;;;;;;1.25;0.90;;;18.30;53.90;;;;;;5012655;28;20076;-68
2022/04/01 10:42:14;;;;;;;2.20;1.17;;;18.30;53.80;;;;;;5012568;28;20026;-68
2022/04/01 10:44:50;;;;;;;2.58;0.80;;;18.40;53.90;;;;;;5012364;28;20049;-68
2022/04/01 10:47:16;;;;;;;1.52;0.70;;;18.40;53.80;;;;;;5012420;28;20026;-68
2022/04/01 10:52:26;;;;;;;1.83;0.80;;;18.30;53.70;;;;;;5012729;28;20037;-68
2022/04/01 10:55:05;;;;;;;1.58;0.60;;;18.30;53.80;;;;;;5013701;28;20022;-68
2022/04/01 10:57:32;;;;;;;1.27;0.77;;;18.40;53.60;;;;;;5013394;28;20050;-68
2022/04/01 11:00:04;;;;;;;2.70;0.70;;;18.30;53.70;;;;;;5024632;28;20025;-68
2022/04/01 11:02:30;;;;;;;1.33;0.70;;;18.40;53.70;;;;;;5031946;28;20392;-68
2022/04/01 11:04:55;;;;;;;1.30;0.70;;;18.30;53.70;;;;;;5033264;28;20032;-68
2022/04/01 11:07:24;;;;;;;1.15;0.52;;;18.30;53.80;;;;;;5033006;28;20022;-68
2022/04/01 11:09:54;;;;;;;2.05;1.02;;;18.40;53.80;;;;;;5017937;28;20058;-68
2022/04/01 11:12:33;;;;;;;2.88;0.80;;;18.40;53.70;;;;;;5013203;28;20542;-68
2022/04/01 11:15:11;;;;;;;1.63;0.60;;;18.40;53.60;;;;;;5013029;28;20022;-68
2022/04/01 11:17:37;;;;;;;1.60;0.93;;;18.30;53.70;;;;;;5012387;28;20488;-68
2022/04/01 11:20:09;;;;;;;1.00;0.63;;;18.30;53.60;;;;;;5013201;28;20062;-68
2022/04/01 11:22:36;;;;;;;3.33;0.70;;;18.30;53.60;;;;;;5011948;28;20054;-68
2022/04/01 11:25:02;;;;;;;0.50;0.50;;;18.30;53.70;;;;;;5013000;28;20647;-68
2022/04/01 11:27:28;;;;;;;2.05;0.65;;;18.30;53.70;;;;;;5011737;28;20026;-68
2022/04/01 11:30:13;;;;;;;1.38;0.70;;;18.30;53.60;;;;;;5011965;28;20543;-68
2022/04/01 11:32:39;;;;;;;0.60;0.50;;;18.40;53.40;;;;;;5011665;28;20033;-68
2022/04/01 11:35:05;;;;;;;0.82;0.60;;;18.30;53.60;;;;;;5012855;28;20018;-68
2022/04/01 11:37:45;;;;;;;0.70;0.50;;;18.30;53.60;;;;;;5011680;28;20026;-68
2022/04/01 11:40:12;;;;;;;2.05;0.63;;;18.40;53.50;;;;;;5011671;28;20041;-68
2022/04/01 11:42:58;;;;;;;1.02;0.50;;;18.30;53.60;;;;;;5011202;28;20033;-68
2022/04/01 11:45:25;;;;;;;0.70;0.52;;;18.40;53.30;;;;;;5011626;28;20065;-68
2022/04/01 11:47:50;;;;;;;0.50;0.40;;;18.30;53.60;;;;;;5011594;28;20033;-68
2022/04/01 11:50:17;;;;;;;1.13;0.63;;;18.30;53.50;;;;;;5011535;28;20021;-68
2022/04/01 11:52:45;;;;;;;1.60;0.75;;;18.30;53.50;;;;;;5011697;28;20026;-68
2022/04/01 11:55:14;;;;;;;0.90;0.50;;;18.30;53.50;;;;;;5012702;28;20026;-68
2022/04/01 11:57:40;;;;;;;0.70;0.50;;;18.40;53.50;;;;;;5012396;28;20049;-68
2022/04/01 12:00:14;;;;;;;1.25;0.60;;;18.40;53.60;;;;;;5023813;28;20034;-68
2022/04/01 12:02:39;;;;;;;1.80;0.55;;;18.40;53.40;;;;;;5031432;28;20017;-68
2022/04/01 12:05:05;;;;;;;0.43;0.40;;;18.40;53.50;;;;;;5030859;28;20104;-68
2022/04/01 12:10:22;;;;;;;0.80;0.47;;;18.40;53.50;;;;;;5013680;28;20080;-68
2022/04/01 12:12:58;;;;;;;1.20;0.77;;;18.40;53.40;;;;;;5011248;28;20480;-68
2022/04/01 12:15:43;;;;;;;1.00;0.65;;;18.40;53.50;;;;;;5012526;28;20018;-68
2022/04/01 12:18:19;;;;;;;0.52;0.45;;;18.40;53.20;;;;;;5012406;28;20050;-68
2022/04/01 12:20:53;;;;;;;0.55;0.30;;;18.40;53.50;;;;;;5011344;28;20386;-68
2022/04/01 12:23:25;;;;;;;1.92;0.65;;;18.40;53.40;;;;;;5012305;28;20022;-68
2022/04/01 12:25:52;;;;;;;1.45;0.80;;;18.40;53.50;;;;;;5011269;28;20096;-68
2022/04/01 12:28:19;;;;;;;0.85;0.60;;;18.30;53.50;;;;;;5012624;28;20026;-68
2022/04/01 12:30:55;;;;;;;0.70;0.35;;;18.40;53.50;;;;;;5016189;28;20476;-68
2022/04/01 12:33:27;;;;;;;1.35;0.65;;;18.40;53.30;;;;;;5015095;28;20022;-68
2022/04/01 12:36:07;;;;;;;1.73;0.80;;;18.40;53.40;;;;;;5015156;28;20022;-68
2022/04/01 12:38:37;;;;;;;2.05;0.68;;;18.40;53.30;;;;;;5014766;28;20120;-68
2022/04/01 12:41:04;;;;;;;0.65;0.50;;;18.40;53.50;;;;;;5015883;28;20049;-68
2022/04/01 12:43:36;;;;;;;1.38;0.40;;;18.40;53.40;;;;;;5014588;28;20037;-68
2022/04/01 12:46:10;;;;;;;0.70;0.50;;;18.40;53.30;;;;;;5016101;28;20030;-68
2022/04/01 12:48:46;;;;;;;1.15;0.60;;;18.40;53.30;;;;;;5015823;28;20026;-68
2022/04/01 12:51:18;;;;;;;1.77;0.70;;;18.40;53.40;;;;;;5015938;28;20165;-68
2022/04/01 12:54:05;;;;;;;0.70;0.60;;;18.40;53.40;;;;;;5016004;28;20129;-68
2022/04/01 12:56:41;;;;;;;0.68;0.40;;;18.40;53.10;;;;;;5014360;28;20481;-68
2022/04/01 12:59:08;;;;;;;0.63;0.40;;;18.40;53.40;;;;;;5019080;28;20022;-68
2022/04/01 13:01:35;;;;;;;1.02;0.50;;;18.40;53.40;;;;;;5035550;28;20018;-68
2022/04/01 13:04:01;;;;;;;0.93;0.50;;;18.40;53.40;;;;;;5035566;28;20024;-68
2022/04/01 13:06:28;;;;;;;0.98;0.60;;;18.40;53.30;;;;;;5034137;28;20017;-68
2022/04/01 13:09:10;;;;;;;0.77;0.57;;;18.40;53.30;;;;;;5026676;28;20115;-68